sensor_id;sensor_type;location;lat;lon;timestamp;P1;durP1;ratioP1;P2;durP2;ratioP2
21014;SDS011;19207;-23.482;-46.500;2022-10-22T00:00:03;11.73;;;7.53;;
21014;SDS011;19207;-23.482;-46.500;2022-10-22T00:02:50;45.47;;;23.73;;
21014;SDS011;19207;-23.482;-46.500;2022-10-22T00:05:37;22.23;;;13.45;;
21014;SDS011;19207;-23.482;-46.500;2022-10-22T00:08:23;17.55;;;9.48;;
21014;SDS011;19207;-23.482;-46.500;2022-10-22T00:11:14;16.27;;;8.68;;
21014;SDS011;19207;-23.482;-46.500;2022-10-22T00:14:01;14.10;;;8.43;;
21014;SDS011;19207;-23.482;-46.500;2022-10-22T00:16:47;18.45;;;7.82;;
21014;SDS011;19207;-23.482;-46.500;2022-10-22T00:19:34;19.08;;;8.15;;
21014;SDS011;19207;-23.482;-46.500;2022-10-22T00:22:20;13.88;;;7.40;;
21014;SDS011;19207;-23.482;-46.500;2022-10-22T00:25:07;18.33;;;7.75;;
21014;SDS011;19207;-23.482;-46.500;2022-10-22T00:27:54;16.75;;;7.72;;
21014;SDS011;19207;-23.482;-46.500;2022-10-22T00:30:41;11.38;;;6.95;;
21014;SDS011;19207;-23.482;-46.500;2022-10-22T00:33:28;14.10;;;7.45;;
21014;SDS011;19207;-23.482;-46.500;2022-10-22T00:36:15;11.55;;;6.78;;
21014;SDS011;19207;-23.482;-46.500;2022-10-22T00:39:01;15.77;;;7.22;;
21014;SDS011;19207;-23.482;-46.500;2022-10-22T00:41:48;12.07;;;7.05;;
21014;SDS011;19207;-23.482;-46.500;2022-10-22T00:50:46;13.38;;;7.30;;
21014;SDS011;19207;-23.482;-46.500;2022-10-22T00:53:36;14.10;;;7.53;;
21014;SDS011;19207;-23.482;-46.500;2022-10-22T00:56:25;11.77;;;6.47;;
21014;SDS011;19207;-23.482;-46.500;2022-10-22T00:59:12;10.90;;;6.82;;
21014;SDS011;19207;-23.482;-46.500;2022-10-22T01:02:00;16.52;;;7.10;;
21014;SDS011;19207;-23.482;-46.500;2022-10-22T01:04:47;13.65;;;7.22;;
21014;SDS011;19207;-23.482;-46.500;2022-10-22T01:07:35;13.45;;;7.25;;
21014;SDS011;19207;-23.482;-46.500;2022-10-22T01:10:25;15.95;;;7.05;;
21014;SDS011;19207;-23.482;-46.500;2022-10-22T01:16:07;16.62;;;8.90;;
21014;SDS011;19207;-23.482;-46.500;2022-10-22T01:19:24;14.98;;;7.97;;
21014;SDS011;19207;-23.482;-46.500;2022-10-22T01:22:19;13.65;;;8.00;;
21014;SDS011;19207;-23.482;-46.500;2022-10-22T01:30:49;13.20;;;7.60;;
21014;SDS011;19207;-23.482;-46.500;2022-10-22T01:33:36;12.37;;;6.43;;
21014;SDS011;19207;-23.482;-46.500;2022-10-22T01:36:24;14.57;;;6.75;;
21014;SDS011;19207;-23.482;-46.500;2022-10-22T01:39:10;12.10;;;6.47;;
21014;SDS011;19207;-23.482;-46.500;2022-10-22T01:41:58;15.43;;;6.90;;
21014;SDS011;19207;-23.482;-46.500;2022-10-22T01:44:44;13.65;;;7.10;;
21014;SDS011;19207;-23.482;-46.500;2022-10-22T01:53:53;12.50;;;6.40;;
21014;SDS011;19207;-23.482;-46.500;2022-10-22T02:02:47;16.12;;;7.37;;
21014;SDS011;19207;-23.482;-46.500;2022-10-22T02:08:28;18.20;;;7.25;;
21014;SDS011;19207;-23.482;-46.500;2022-10-22T02:11:16;12.13;;;6.68;;
21014;SDS011;19207;-23.482;-46.500;2022-10-22T02:14:02;17.40;;;7.12;;
21014;SDS011;19207;-23.482;-46.500;2022-10-22T02:16:50;10.93;;;7.10;;
21014;SDS011;19207;-23.482;-46.500;2022-10-22T02:19:38;9.98;;;6.50;;
21014;SDS011;19207;-23.482;-46.500;2022-10-22T02:22:26;14.45;;;6.85;;
21014;SDS011;19207;-23.482;-46.500;2022-10-22T02:25:13;13.15;;;7.50;;
21014;SDS011;19207;-23.482;-46.500;2022-10-22T02:31:12;16.17;;;8.05;;
21014;SDS011;19207;-23.482;-46.500;2022-10-22T02:34:01;10.65;;;6.53;;
21014;SDS011;19207;-23.482;-46.500;2022-10-22T02:36:49;11.82;;;6.82;;
21014;SDS011;19207;-23.482;-46.500;2022-10-22T02:39:36;10.13;;;6.55;;
21014;SDS011;19207;-23.482;-46.500;2022-10-22T02:42:24;10.27;;;6.37;;
21014;SDS011;19207;-23.482;-46.500;2022-10-22T02:45:11;11.15;;;6.43;;
21014;SDS011;19207;-23.482;-46.500;2022-10-22T02:47:57;15.23;;;6.53;;
21014;SDS011;19207;-23.482;-46.500;2022-10-22T02:50:43;14.90;;;7.35;;
21014;SDS011;19207;-23.482;-46.500;2022-10-22T02:53:29;11.43;;;6.62;;
21014;SDS011;19207;-23.482;-46.500;2022-10-22T02:56:16;9.55;;;6.50;;
21014;SDS011;19207;-23.482;-46.500;2022-10-22T02:59:02;12.43;;;7.20;;
21014;SDS011;19207;-23.482;-46.500;2022-10-22T03:01:50;10.30;;;6.80;;
21014;SDS011;19207;-23.482;-46.500;2022-10-22T03:04:36;11.10;;;6.95;;
21014;SDS011;19207;-23.482;-46.500;2022-10-22T03:07:23;12.13;;;7.35;;
21014;SDS011;19207;-23.482;-46.500;2022-10-22T03:10:10;13.13;;;6.50;;
21014;SDS011;19207;-23.482;-46.500;2022-10-22T03:12:57;12.77;;;6.72;;
21014;SDS011;19207;-23.482;-46.500;2022-10-22T03:15:43;10.32;;;6.40;;
21014;SDS011;19207;-23.482;-46.500;2022-10-22T03:18:30;14.93;;;6.72;;
21014;SDS011;19207;-23.482;-46.500;2022-10-22T03:21:20;12.60;;;6.75;;
21014;SDS011;19207;-23.482;-46.500;2022-10-22T03:24:11;11.57;;;7.03;;
21014;SDS011;19207;-23.482;-46.500;2022-10-22T03:26:58;10.52;;;6.85;;
21014;SDS011;19207;-23.482;-46.500;2022-10-22T03:29:45;13.90;;;6.82;;
21014;SDS011;19207;-23.482;-46.500;2022-10-22T03:32:32;17.02;;;7.00;;
21014;SDS011;19207;-23.482;-46.500;2022-10-22T03:35:19;10.32;;;6.90;;
21014;SDS011;19207;-23.482;-46.500;2022-10-22T03:38:05;14.38;;;7.00;;
21014;SDS011;19207;-23.482;-46.500;2022-10-22T03:40:52;12.85;;;7.00;;
21014;SDS011;19207;-23.482;-46.500;2022-10-22T03:43:39;12.98;;;6.55;;
21014;SDS011;19207;-23.482;-46.500;2022-10-22T03:46:25;9.52;;;6.78;;
21014;SDS011;19207;-23.482;-46.500;2022-10-22T03:49:12;15.18;;;7.40;;
21014;SDS011;19207;-23.482;-46.500;2022-10-22T03:52:05;19.83;;;7.40;;
21014;SDS011;19207;-23.482;-46.500;2022-10-22T03:54:52;12.85;;;7.12;;
21014;SDS011;19207;-23.482;-46.500;2022-10-22T03:57:39;11.00;;;6.95;;
21014;SDS011;19207;-23.482;-46.500;2022-10-22T04:00:25;11.05;;;7.05;;
21014;SDS011;19207;-23.482;-46.500;2022-10-22T04:03:12;13.02;;;7.12;;
21014;SDS011;19207;-23.482;-46.500;2022-10-22T04:06:06;12.32;;;7.07;;
21014;SDS011;19207;-23.482;-46.500;2022-10-22T04:08:53;16.60;;;7.60;;
21014;SDS011;19207;-23.482;-46.500;2022-10-22T04:11:40;13.98;;;7.62;;
21014;SDS011;19207;-23.482;-46.500;2022-10-22T04:14:27;12.85;;;7.93;;
21014;SDS011;19207;-23.482;-46.500;2022-10-22T04:17:14;13.02;;;8.15;;
21014;SDS011;19207;-23.482;-46.500;2022-10-22T04:20:02;12.60;;;7.20;;
21014;SDS011;19207;-23.482;-46.500;2022-10-22T04:22:48;12.05;;;7.57;;
21014;SDS011;19207;-23.482;-46.500;2022-10-22T04:25:35;11.82;;;7.80;;
21014;SDS011;19207;-23.482;-46.500;2022-10-22T04:28:22;13.38;;;7.75;;
21014;SDS011;19207;-23.482;-46.500;2022-10-22T04:31:09;22.30;;;7.80;;
21014;SDS011;19207;-23.482;-46.500;2022-10-22T04:33:57;10.20;;;7.60;;
21014;SDS011;19207;-23.482;-46.500;2022-10-22T04:36:44;16.92;;;8.32;;
21014;SDS011;19207;-23.482;-46.500;2022-10-22T04:39:30;21.60;;;8.27;;
21014;SDS011;19207;-23.482;-46.500;2022-10-22T04:42:17;13.15;;;8.15;;
21014;SDS011;19207;-23.482;-46.500;2022-10-22T04:45:04;14.82;;;8.45;;
21014;SDS011;19207;-23.482;-46.500;2022-10-22T04:47:51;12.35;;;8.50;;
21014;SDS011;19207;-23.482;-46.500;2022-10-22T04:50:37;13.35;;;8.73;;
21014;SDS011;19207;-23.482;-46.500;2022-10-22T04:53:24;18.10;;;9.32;;
21014;SDS011;19207;-23.482;-46.500;2022-10-22T04:56:12;13.52;;;9.45;;
21014;SDS011;19207;-23.482;-46.500;2022-10-22T04:59:06;17.25;;;10.82;;
21014;SDS011;19207;-23.482;-46.500;2022-10-22T05:01:53;20.77;;;10.98;;
21014;SDS011;19207;-23.482;-46.500;2022-10-22T05:04:39;15.85;;;10.43;;
21014;SDS011;19207;-23.482;-46.500;2022-10-22T05:07:29;16.80;;;10.93;;
21014;SDS011;19207;-23.482;-46.500;2022-10-22T05:10:15;17.58;;;9.82;;
21014;SDS011;19207;-23.482;-46.500;2022-10-22T05:13:03;16.77;;;10.07;;
21014;SDS011;19207;-23.482;-46.500;2022-10-22T05:15:50;18.55;;;10.68;;
21014;SDS011;19207;-23.482;-46.500;2022-10-22T05:18:37;19.15;;;10.35;;
21014;SDS011;19207;-23.482;-46.500;2022-10-22T05:21:24;18.08;;;10.07;;
21014;SDS011;19207;-23.482;-46.500;2022-10-22T05:24:11;17.62;;;9.90;;
21014;SDS011;19207;-23.482;-46.500;2022-10-22T05:26:58;17.48;;;10.30;;
21014;SDS011;19207;-23.482;-46.500;2022-10-22T05:29:45;16.08;;;10.90;;
21014;SDS011;19207;-23.482;-46.500;2022-10-22T05:32:33;17.52;;;11.10;;
21014;SDS011;19207;-23.482;-46.500;2022-10-22T05:35:20;17.02;;;10.85;;
21014;SDS011;19207;-23.482;-46.500;2022-10-22T05:38:06;15.20;;;10.82;;
21014;SDS011;19207;-23.482;-46.500;2022-10-22T05:41:05;17.90;;;11.55;;
21014;SDS011;19207;-23.482;-46.500;2022-10-22T05:43:54;17.45;;;11.93;;
21014;SDS011;19207;-23.482;-46.500;2022-10-22T05:46:41;18.95;;;12.40;;
21014;SDS011;19207;-23.482;-46.500;2022-10-22T05:49:27;25.65;;;13.73;;
21014;SDS011;19207;-23.482;-46.500;2022-10-22T05:52:14;19.15;;;13.15;;
21014;SDS011;19207;-23.482;-46.500;2022-10-22T05:55:01;22.02;;;14.13;;
21014;SDS011;19207;-23.482;-46.500;2022-10-22T05:57:47;22.15;;;14.57;;
21014;SDS011;19207;-23.482;-46.500;2022-10-22T06:00:34;29.02;;;14.80;;
21014;SDS011;19207;-23.482;-46.500;2022-10-22T06:03:20;23.90;;;15.27;;
21014;SDS011;19207;-23.482;-46.500;2022-10-22T06:09:19;24.80;;;14.95;;
21014;SDS011;19207;-23.482;-46.500;2022-10-22T06:12:06;24.75;;;15.20;;
21014;SDS011;19207;-23.482;-46.500;2022-10-22T06:14:54;23.23;;;15.23;;
21014;SDS011;19207;-23.482;-46.500;2022-10-22T06:17:42;22.83;;;15.13;;
21014;SDS011;19207;-23.482;-46.500;2022-10-22T06:20:29;23.17;;;15.63;;
21014;SDS011;19207;-23.482;-46.500;2022-10-22T06:23:16;27.33;;;16.65;;
21014;SDS011;19207;-23.482;-46.500;2022-10-22T06:26:03;25.27;;;16.33;;
21014;SDS011;19207;-23.482;-46.500;2022-10-22T06:28:50;21.25;;;14.50;;
21014;SDS011;19207;-23.482;-46.500;2022-10-22T06:31:37;24.20;;;15.73;;
21014;SDS011;19207;-23.482;-46.500;2022-10-22T06:34:23;22.37;;;13.98;;
21014;SDS011;19207;-23.482;-46.500;2022-10-22T06:37:11;22.25;;;14.07;;
21014;SDS011;19207;-23.482;-46.500;2022-10-22T06:39:59;20.35;;;13.95;;
21014;SDS011;19207;-23.482;-46.500;2022-10-22T06:42:46;17.15;;;12.43;;
21014;SDS011;19207;-23.482;-46.500;2022-10-22T06:45:33;19.33;;;11.88;;
21014;SDS011;19207;-23.482;-46.500;2022-10-22T06:48:19;24.58;;;12.93;;
21014;SDS011;19207;-23.482;-46.500;2022-10-22T06:51:07;19.52;;;11.00;;
21014;SDS011;19207;-23.482;-46.500;2022-10-22T06:53:55;19.52;;;10.93;;
21014;SDS011;19207;-23.482;-46.500;2022-10-22T06:56:41;20.75;;;11.18;;
21014;SDS011;19207;-23.482;-46.500;2022-10-22T06:59:28;16.95;;;10.85;;
21014;SDS011;19207;-23.482;-46.500;2022-10-22T07:02:14;16.00;;;10.88;;
21014;SDS011;19207;-23.482;-46.500;2022-10-22T07:05:01;16.70;;;10.82;;
21014;SDS011;19207;-23.482;-46.500;2022-10-22T07:07:48;19.25;;;12.35;;
21014;SDS011;19207;-23.482;-46.500;2022-10-22T07:10:35;20.90;;;11.82;;
21014;SDS011;19207;-23.482;-46.500;2022-10-22T07:13:22;21.85;;;12.52;;
21014;SDS011;19207;-23.482;-46.500;2022-10-22T07:16:09;27.50;;;13.40;;
21014;SDS011;19207;-23.482;-46.500;2022-10-22T07:18:55;23.38;;;12.95;;
21014;SDS011;19207;-23.482;-46.500;2022-10-22T07:21:42;23.00;;;13.57;;
21014;SDS011;19207;-23.482;-46.500;2022-10-22T07:24:29;23.45;;;14.43;;
21014;SDS011;19207;-23.482;-46.500;2022-10-22T07:27:16;21.45;;;14.20;;
21014;SDS011;19207;-23.482;-46.500;2022-10-22T07:30:02;28.27;;;14.90;;
21014;SDS011;19207;-23.482;-46.500;2022-10-22T07:32:49;29.45;;;15.25;;
21014;SDS011;19207;-23.482;-46.500;2022-10-22T07:35:36;26.73;;;14.73;;
21014;SDS011;19207;-23.482;-46.500;2022-10-22T07:38:24;25.65;;;15.48;;
21014;SDS011;19207;-23.482;-46.500;2022-10-22T07:41:10;26.52;;;16.62;;
21014;SDS011;19207;-23.482;-46.500;2022-10-22T07:43:57;27.77;;;16.33;;
21014;SDS011;19207;-23.482;-46.500;2022-10-22T07:46:44;27.17;;;16.85;;
21014;SDS011;19207;-23.482;-46.500;2022-10-22T07:49:31;29.42;;;16.80;;
21014;SDS011;19207;-23.482;-46.500;2022-10-22T07:52:18;28.95;;;18.08;;
21014;SDS011;19207;-23.482;-46.500;2022-10-22T07:55:04;35.28;;;18.40;;
21014;SDS011;19207;-23.482;-46.500;2022-10-22T07:57:51;33.47;;;18.08;;
21014;SDS011;19207;-23.482;-46.500;2022-10-22T08:00:38;28.12;;;17.50;;
21014;SDS011;19207;-23.482;-46.500;2022-10-22T08:03:24;32.95;;;17.87;;
21014;SDS011;19207;-23.482;-46.500;2022-10-22T08:06:14;30.00;;;17.50;;
21014;SDS011;19207;-23.482;-46.500;2022-10-22T08:09:02;31.67;;;18.00;;
21014;SDS011;19207;-23.482;-46.500;2022-10-22T08:11:49;29.60;;;18.20;;
21014;SDS011;19207;-23.482;-46.500;2022-10-22T08:14:35;39.30;;;20.37;;
21014;SDS011;19207;-23.482;-46.500;2022-10-22T08:17:22;35.38;;;19.25;;
21014;SDS011;19207;-23.482;-46.500;2022-10-22T08:20:09;32.42;;;18.95;;
21014;SDS011;19207;-23.482;-46.500;2022-10-22T08:22:56;35.97;;;19.80;;
21014;SDS011;19207;-23.482;-46.500;2022-10-22T08:25:43;33.13;;;19.62;;
21014;SDS011;19207;-23.482;-46.500;2022-10-22T08:28:30;32.17;;;19.42;;
21014;SDS011;19207;-23.482;-46.500;2022-10-22T08:31:20;30.58;;;18.73;;
21014;SDS011;19207;-23.482;-46.500;2022-10-22T08:34:07;34.08;;;20.08;;
21014;SDS011;19207;-23.482;-46.500;2022-10-22T08:36:54;30.67;;;18.08;;
21014;SDS011;19207;-23.482;-46.500;2022-10-22T08:39:41;28.55;;;17.12;;
21014;SDS011;19207;-23.482;-46.500;2022-10-22T08:45:19;30.00;;;17.08;;
21014;SDS011;19207;-23.482;-46.500;2022-10-22T08:51:15;35.63;;;17.17;;
21014;SDS011;19207;-23.482;-46.500;2022-10-22T09:00:01;27.58;;;14.68;;
21014;SDS011;19207;-23.482;-46.500;2022-10-22T09:08:32;20.75;;;13.60;;
21014;SDS011;19207;-23.482;-46.500;2022-10-22T09:14:09;19.98;;;12.60;;
21014;SDS011;19207;-23.482;-46.500;2022-10-22T09:22:52;18.25;;;11.30;;
21014;SDS011;19207;-23.482;-46.500;2022-10-22T09:25:41;18.10;;;11.30;;
21014;SDS011;19207;-23.482;-46.500;2022-10-22T09:28:30;19.55;;;10.68;;
21014;SDS011;19207;-23.482;-46.500;2022-10-22T09:31:17;16.23;;;10.85;;
21014;SDS011;19207;-23.482;-46.500;2022-10-22T09:34:03;22.23;;;11.77;;
21014;SDS011;19207;-23.482;-46.500;2022-10-22T09:36:59;19.85;;;12.32;;
21014;SDS011;19207;-23.482;-46.500;2022-10-22T09:39:46;17.67;;;11.73;;
21014;SDS011;19207;-23.482;-46.500;2022-10-22T09:42:34;17.98;;;10.93;;
21014;SDS011;19207;-23.482;-46.500;2022-10-22T09:45:22;17.87;;;10.82;;
21014;SDS011;19207;-23.482;-46.500;2022-10-22T09:48:20;20.10;;;11.20;;
21014;SDS011;19207;-23.482;-46.500;2022-10-22T09:54:01;27.40;;;10.45;;
21014;SDS011;19207;-23.482;-46.500;2022-10-22T09:57:03;20.95;;;10.80;;
21014;SDS011;19207;-23.482;-46.500;2022-10-22T09:59:50;16.55;;;10.05;;
21014;SDS011;19207;-23.482;-46.500;2022-10-22T10:02:39;15.40;;;9.73;;
21014;SDS011;19207;-23.482;-46.500;2022-10-22T10:05:28;18.40;;;10.48;;
21014;SDS011;19207;-23.482;-46.500;2022-10-22T10:08:15;20.02;;;10.25;;
21014;SDS011;19207;-23.482;-46.500;2022-10-22T10:11:08;14.87;;;10.30;;
21014;SDS011;19207;-23.482;-46.500;2022-10-22T10:31:43;13.65;;;5.60;;
21014;SDS011;19207;-23.482;-46.500;2022-10-22T10:37:29;9.30;;;4.68;;
21014;SDS011;19207;-23.482;-46.500;2022-10-22T10:40:22;7.40;;;4.68;;
21014;SDS011;19207;-23.482;-46.500;2022-10-22T10:43:25;9.95;;;4.68;;
21014;SDS011;19207;-23.482;-46.500;2022-10-22T10:46:22;15.18;;;4.65;;
21014;SDS011;19207;-23.482;-46.500;2022-10-22T10:49:16;9.20;;;4.53;;
21014;SDS011;19207;-23.482;-46.500;2022-10-22T10:52:26;11.73;;;4.95;;
21014;SDS011;19207;-23.482;-46.500;2022-10-22T11:00:56;7.90;;;5.25;;
21014;SDS011;19207;-23.482;-46.500;2022-10-22T11:06:39;10.75;;;4.43;;
21014;SDS011;19207;-23.482;-46.500;2022-10-22T11:09:33;9.88;;;5.72;;
21014;SDS011;19207;-23.482;-46.500;2022-10-22T11:12:23;10.38;;;6.03;;
21014;SDS011;19207;-23.482;-46.500;2022-10-22T11:15:15;11.20;;;6.35;;
21014;SDS011;19207;-23.482;-46.500;2022-10-22T11:27:29;16.67;;;7.10;;
21014;SDS011;19207;-23.482;-46.500;2022-10-22T11:30:18;10.00;;;6.80;;
21014;SDS011;19207;-23.482;-46.500;2022-10-22T11:33:06;13.35;;;6.70;;
21014;SDS011;19207;-23.482;-46.500;2022-10-22T11:35:55;10.52;;;6.68;;
21014;SDS011;19207;-23.482;-46.500;2022-10-22T11:38:43;15.90;;;6.30;;
21014;SDS011;19207;-23.482;-46.500;2022-10-22T11:41:29;12.27;;;6.53;;
21014;SDS011;19207;-23.482;-46.500;2022-10-22T11:44:22;11.48;;;6.22;;
21014;SDS011;19207;-23.482;-46.500;2022-10-22T11:47:18;10.00;;;6.55;;
21014;SDS011;19207;-23.482;-46.500;2022-10-22T11:50:25;14.77;;;6.12;;
21014;SDS011;19207;-23.482;-46.500;2022-10-22T11:56:03;8.52;;;4.60;;
21014;SDS011;19207;-23.482;-46.500;2022-10-22T11:58:49;8.77;;;4.40;;
21014;SDS011;19207;-23.482;-46.500;2022-10-22T12:01:40;8.70;;;4.20;;
21014;SDS011;19207;-23.482;-46.500;2022-10-22T12:04:39;8.15;;;4.28;;
21014;SDS011;19207;-23.482;-46.500;2022-10-22T12:07:34;9.00;;;4.28;;
21014;SDS011;19207;-23.482;-46.500;2022-10-22T12:10:47;10.15;;;3.90;;
21014;SDS011;19207;-23.482;-46.500;2022-10-22T12:16:43;6.62;;;4.37;;
21014;SDS011;19207;-23.482;-46.500;2022-10-22T12:19:31;7.03;;;4.43;;
21014;SDS011;19207;-23.482;-46.500;2022-10-22T12:25:29;14.50;;;4.80;;
21014;SDS011;19207;-23.482;-46.500;2022-10-22T12:28:15;8.38;;;4.35;;
21014;SDS011;19207;-23.482;-46.500;2022-10-22T12:31:04;6.60;;;4.68;;
21014;SDS011;19207;-23.482;-46.500;2022-10-22T12:33:57;6.57;;;4.40;;
21014;SDS011;19207;-23.482;-46.500;2022-10-22T12:36:45;9.13;;;4.43;;
21014;SDS011;19207;-23.482;-46.500;2022-10-22T12:39:32;6.82;;;4.28;;
21014;SDS011;19207;-23.482;-46.500;2022-10-22T12:42:19;6.00;;;3.83;;
21014;SDS011;19207;-23.482;-46.500;2022-10-22T12:45:07;6.72;;;4.70;;
21014;SDS011;19207;-23.482;-46.500;2022-10-22T12:47:55;12.30;;;4.82;;
21014;SDS011;19207;-23.482;-46.500;2022-10-22T12:50:44;6.90;;;4.50;;
21014;SDS011;19207;-23.482;-46.500;2022-10-22T12:53:41;8.00;;;5.10;;
21014;SDS011;19207;-23.482;-46.500;2022-10-22T12:56:28;8.68;;;5.78;;
21014;SDS011;19207;-23.482;-46.500;2022-10-22T12:59:35;9.30;;;5.07;;
21014;SDS011;19207;-23.482;-46.500;2022-10-22T13:02:23;12.23;;;5.28;;
21014;SDS011;19207;-23.482;-46.500;2022-10-22T13:05:19;12.45;;;6.22;;
21014;SDS011;19207;-23.482;-46.500;2022-10-22T13:08:08;12.10;;;5.87;;
21014;SDS011;19207;-23.482;-46.500;2022-10-22T13:10:55;9.27;;;5.43;;
21014;SDS011;19207;-23.482;-46.500;2022-10-22T13:13:42;8.68;;;5.80;;
21014;SDS011;19207;-23.482;-46.500;2022-10-22T13:16:29;12.77;;;5.93;;
21014;SDS011;19207;-23.482;-46.500;2022-10-22T13:22:40;10.02;;;5.35;;
21014;SDS011;19207;-23.482;-46.500;2022-10-22T13:25:30;6.35;;;4.68;;
21014;SDS011;19207;-23.482;-46.500;2022-10-22T13:28:18;7.82;;;4.53;;
21014;SDS011;19207;-23.482;-46.500;2022-10-22T13:31:08;9.10;;;5.05;;
21014;SDS011;19207;-23.482;-46.500;2022-10-22T13:33:55;9.23;;;4.57;;
21014;SDS011;19207;-23.482;-46.500;2022-10-22T13:36:42;8.25;;;4.00;;
21014;SDS011;19207;-23.482;-46.500;2022-10-22T13:39:30;9.38;;;4.20;;
21014;SDS011;19207;-23.482;-46.500;2022-10-22T13:42:17;6.18;;;4.15;;
21014;SDS011;19207;-23.482;-46.500;2022-10-22T13:45:04;4.55;;;3.40;;
21014;SDS011;19207;-23.482;-46.500;2022-10-22T13:47:51;8.27;;;4.65;;
21014;SDS011;19207;-23.482;-46.500;2022-10-22T13:50:38;7.45;;;4.05;;
21014;SDS011;19207;-23.482;-46.500;2022-10-22T13:53:26;6.93;;;3.87;;
21014;SDS011;19207;-23.482;-46.500;2022-10-22T13:56:14;7.80;;;4.32;;
21014;SDS011;19207;-23.482;-46.500;2022-10-22T13:59:00;6.28;;;4.25;;
21014;SDS011;19207;-23.482;-46.500;2022-10-22T14:01:47;10.98;;;4.53;;
21014;SDS011;19207;-23.482;-46.500;2022-10-22T14:04:34;8.02;;;4.43;;
21014;SDS011;19207;-23.482;-46.500;2022-10-22T14:07:22;8.85;;;4.00;;
21014;SDS011;19207;-23.482;-46.500;2022-10-22T14:10:12;8.27;;;3.80;;
21014;SDS011;19207;-23.482;-46.500;2022-10-22T14:12:59;7.82;;;4.10;;
21014;SDS011;19207;-23.482;-46.500;2022-10-22T14:15:46;7.82;;;3.83;;
21014;SDS011;19207;-23.482;-46.500;2022-10-22T14:18:33;5.43;;;3.50;;
21014;SDS011;19207;-23.482;-46.500;2022-10-22T14:21:20;8.35;;;3.97;;
21014;SDS011;19207;-23.482;-46.500;2022-10-22T14:24:08;10.35;;;3.55;;
21014;SDS011;19207;-23.482;-46.500;2022-10-22T14:26:55;6.15;;;3.53;;
21014;SDS011;19207;-23.482;-46.500;2022-10-22T14:29:42;7.03;;;3.40;;
21014;SDS011;19207;-23.482;-46.500;2022-10-22T14:32:29;7.82;;;3.58;;
21014;SDS011;19207;-23.482;-46.500;2022-10-22T14:35:17;9.43;;;4.40;;
21014;SDS011;19207;-23.482;-46.500;2022-10-22T14:38:04;12.07;;;3.90;;
21014;SDS011;19207;-23.482;-46.500;2022-10-22T14:40:50;8.93;;;4.32;;
21014;SDS011;19207;-23.482;-46.500;2022-10-22T14:43:37;7.93;;;4.15;;
21014;SDS011;19207;-23.482;-46.500;2022-10-22T14:46:24;8.70;;;4.03;;
21014;SDS011;19207;-23.482;-46.500;2022-10-22T14:49:11;7.30;;;3.58;;
21014;SDS011;19207;-23.482;-46.500;2022-10-22T14:51:58;6.20;;;3.75;;
21014;SDS011;19207;-23.482;-46.500;2022-10-22T14:54:46;6.03;;;3.85;;
21014;SDS011;19207;-23.482;-46.500;2022-10-22T14:57:33;5.93;;;3.40;;
21014;SDS011;19207;-23.482;-46.500;2022-10-22T15:00:20;4.53;;;3.30;;
21014;SDS011;19207;-23.482;-46.500;2022-10-22T15:03:06;6.85;;;3.22;;
21014;SDS011;19207;-23.482;-46.500;2022-10-22T15:05:53;4.72;;;2.83;;
21014;SDS011;19207;-23.482;-46.500;2022-10-22T15:08:40;3.62;;;2.60;;
21014;SDS011;19207;-23.482;-46.500;2022-10-22T15:11:26;3.67;;;2.55;;
21014;SDS011;19207;-23.482;-46.500;2022-10-22T15:14:13;3.75;;;2.65;;
21014;SDS011;19207;-23.482;-46.500;2022-10-22T15:16:59;6.37;;;3.28;;
21014;SDS011;19207;-23.482;-46.500;2022-10-22T15:19:46;4.80;;;3.12;;
21014;SDS011;19207;-23.482;-46.500;2022-10-22T15:22:33;5.43;;;2.83;;
21014;SDS011;19207;-23.482;-46.500;2022-10-22T15:25:20;5.32;;;3.00;;
21014;SDS011;19207;-23.482;-46.500;2022-10-22T15:28:07;3.67;;;2.50;;
21014;SDS011;19207;-23.482;-46.500;2022-10-22T15:30:54;19.17;;;10.98;;
21014;SDS011;19207;-23.482;-46.500;2022-10-22T15:33:41;17.92;;;11.10;;
21014;SDS011;19207;-23.482;-46.500;2022-10-22T15:36:28;22.50;;;10.90;;
21014;SDS011;19207;-23.482;-46.500;2022-10-22T15:39:15;24.27;;;10.43;;
21014;SDS011;19207;-23.482;-46.500;2022-10-22T15:42:02;19.02;;;9.90;;
21014;SDS011;19207;-23.482;-46.500;2022-10-22T15:44:48;21.05;;;8.82;;
21014;SDS011;19207;-23.482;-46.500;2022-10-22T15:47:45;9.55;;;6.82;;
21014;SDS011;19207;-23.482;-46.500;2022-10-22T15:50:35;11.88;;;6.25;;
21014;SDS011;19207;-23.482;-46.500;2022-10-22T15:53:22;16.35;;;10.43;;
21014;SDS011;19207;-23.482;-46.500;2022-10-22T15:56:09;21.33;;;12.10;;
21014;SDS011;19207;-23.482;-46.500;2022-10-22T15:59:00;21.83;;;12.00;;
21014;SDS011;19207;-23.482;-46.500;2022-10-22T16:01:48;19.05;;;12.02;;
21014;SDS011;19207;-23.482;-46.500;2022-10-22T16:04:36;18.23;;;11.73;;
21014;SDS011;19207;-23.482;-46.500;2022-10-22T16:07:22;29.20;;;11.90;;
21014;SDS011;19207;-23.482;-46.500;2022-10-22T16:10:09;22.48;;;11.75;;
21014;SDS011;19207;-23.482;-46.500;2022-10-22T16:12:57;18.48;;;11.43;;
21014;SDS011;19207;-23.482;-46.500;2022-10-22T16:15:44;15.63;;;10.95;;
21014;SDS011;19207;-23.482;-46.500;2022-10-22T16:18:31;17.42;;;9.90;;
21014;SDS011;19207;-23.482;-46.500;2022-10-22T16:21:19;19.98;;;9.73;;
21014;SDS011;19207;-23.482;-46.500;2022-10-22T16:24:07;16.42;;;9.98;;
21014;SDS011;19207;-23.482;-46.500;2022-10-22T16:26:54;16.70;;;9.82;;
21014;SDS011;19207;-23.482;-46.500;2022-10-22T16:29:41;16.87;;;10.70;;
21014;SDS011;19207;-23.482;-46.500;2022-10-22T16:32:28;15.20;;;11.50;;
21014;SDS011;19207;-23.482;-46.500;2022-10-22T16:35:14;21.00;;;11.98;;
21014;SDS011;19207;-23.482;-46.500;2022-10-22T16:38:01;24.55;;;14.00;;
21014;SDS011;19207;-23.482;-46.500;2022-10-22T16:40:48;27.33;;;13.90;;
21014;SDS011;19207;-23.482;-46.500;2022-10-22T16:43:35;26.08;;;14.90;;
21014;SDS011;19207;-23.482;-46.500;2022-10-22T16:46:21;25.05;;;14.13;;
21014;SDS011;19207;-23.482;-46.500;2022-10-22T16:49:08;21.62;;;14.02;;
21014;SDS011;19207;-23.482;-46.500;2022-10-22T16:51:55;21.02;;;13.45;;
21014;SDS011;19207;-23.482;-46.500;2022-10-22T16:54:42;19.65;;;13.40;;
21014;SDS011;19207;-23.482;-46.500;2022-10-22T16:57:30;23.35;;;13.60;;
21014;SDS011;19207;-23.482;-46.500;2022-10-22T17:00:19;22.00;;;12.05;;
21014;SDS011;19207;-23.482;-46.500;2022-10-22T17:03:05;23.05;;;14.70;;
21014;SDS011;19207;-23.482;-46.500;2022-10-22T17:05:52;20.92;;;15.73;;
21014;SDS011;19207;-23.482;-46.500;2022-10-22T17:08:39;20.42;;;15.52;;
21014;SDS011;19207;-23.482;-46.500;2022-10-22T17:11:25;20.55;;;12.93;;
21014;SDS011;19207;-23.482;-46.500;2022-10-22T17:14:18;18.17;;;12.63;;
21014;SDS011;19207;-23.482;-46.500;2022-10-22T17:17:05;18.12;;;13.90;;
21014;SDS011;19207;-23.482;-46.500;2022-10-22T17:19:51;23.55;;;14.10;;
21014;SDS011;19207;-23.482;-46.500;2022-10-22T17:22:38;25.10;;;14.57;;
21014;SDS011;19207;-23.482;-46.500;2022-10-22T17:25:31;22.37;;;16.08;;
21014;SDS011;19207;-23.482;-46.500;2022-10-22T17:28:20;20.83;;;13.82;;
21014;SDS011;19207;-23.482;-46.500;2022-10-22T17:31:09;26.48;;;16.70;;
21014;SDS011;19207;-23.482;-46.500;2022-10-22T17:33:56;31.55;;;16.70;;
21014;SDS011;19207;-23.482;-46.500;2022-10-22T17:36:43;24.67;;;16.70;;
21014;SDS011;19207;-23.482;-46.500;2022-10-22T17:39:30;22.08;;;16.05;;
21014;SDS011;19207;-23.482;-46.500;2022-10-22T17:42:16;25.15;;;15.52;;
21014;SDS011;19207;-23.482;-46.500;2022-10-22T17:45:03;29.25;;;16.10;;
21014;SDS011;19207;-23.482;-46.500;2022-10-22T17:47:50;35.58;;;17.85;;